Arabi, Louisiana
Current Conditions -  °F | °C
As of 11:55 PM on Friday 19 Dec 2014 (Local Time) from KVSH Reporting Station
Overcast Overcast  
Wind Chill:   Ceiling: 500
Heat Index:   Visibility: 10mi
Dew Point:   Wind: 6mph
Humidity: 87%   Direction: 10°N
Pressure: 30.08"   Gusts: NA
Location:  29.95°N, 90.01°W
Report Text: KVSH 200555Z AUTO 01005KT 10SM OVC005 09/07 A3008 RMK AO1 P0009 60060 10110 20090 57003
Loading
Personal Weather Stations






























Interactive Weather Map New forecast layout! Learn more

10-Day Weather Forecast

Advertisements
Track Severe Weather on mobile